createdAt,value
2019-06-01T00:01:52.452Z,16.60
2019-06-01T00:04:20.738Z,16.70
2019-06-01T00:06:49.058Z,16.70
2019-06-01T00:09:17.203Z,16.60
2019-06-01T00:11:45.594Z,16.60
2019-06-01T00:14:13.870Z,16.70
2019-06-01T00:16:41.982Z,16.70
2019-06-01T00:19:10.226Z,16.50
2019-06-01T00:21:38.344Z,16.40
2019-06-01T00:24:06.581Z,16.40
2019-06-01T00:26:34.560Z,16.30
2019-06-01T00:29:02.642Z,16.40
2019-06-01T00:31:30.680Z,16.50
2019-06-01T00:33:58.759Z,16.40
2019-06-01T00:36:26.783Z,16.30
2019-06-01T00:38:54.930Z,16.30
2019-06-01T00:41:23.294Z,16.30
2019-06-01T00:43:52.529Z,16.30
2019-06-01T00:46:20.615Z,16.20
2019-06-01T00:48:49.876Z,16.20
2019-06-01T00:51:18.300Z,16.20
2019-06-01T00:53:47.399Z,16.10
2019-06-01T00:56:15.767Z,16.20
2019-06-01T00:58:43.848Z,16.10
2019-06-01T01:01:11.997Z,15.90
2019-06-01T01:03:40.176Z,15.90
2019-06-01T01:06:08.118Z,15.90
2019-06-01T01:08:36.324Z,15.70
2019-06-01T01:11:04.338Z,15.70
2019-06-01T01:13:32.138Z,15.80
2019-06-01T01:16:00.524Z,15.80
2019-06-01T01:18:28.485Z,15.70
2019-06-01T01:20:56.537Z,15.80
2019-06-01T01:23:24.589Z,15.90
2019-06-01T01:25:52.842Z,15.70
2019-06-01T01:28:23.843Z,15.50
2019-06-01T01:31:05.151Z,15.60
2019-06-01T01:33:21.360Z,15.80
2019-06-01T01:35:49.706Z,15.60
2019-06-01T01:38:17.661Z,15.60
2019-06-01T01:40:45.521Z,15.70
2019-06-01T01:43:13.390Z,15.60
2019-06-01T01:45:41.919Z,15.70
2019-06-01T01:48:09.860Z,15.70
2019-06-01T01:50:37.957Z,15.60
2019-06-01T01:53:05.994Z,15.70
2019-06-01T01:55:33.921Z,15.60
2019-06-01T01:58:01.836Z,15.60
2019-06-01T02:00:38.562Z,15.60
2019-06-01T02:03:07.393Z,15.40
2019-06-01T02:05:35.246Z,15.50
2019-06-01T02:08:04.486Z,15.40
2019-06-01T02:10:32.339Z,15.50
2019-06-01T02:13:01.787Z,15.40
2019-06-01T02:15:31.189Z,15.30
2019-06-01T02:18:00.645Z,15.30
2019-06-01T02:20:29.086Z,15.20
2019-06-01T02:22:57.152Z,15.20
2019-06-01T02:25:25.256Z,15.00
2019-06-01T02:27:53.192Z,15.10
2019-06-01T02:30:21.259Z,15.30
2019-06-01T02:32:49.200Z,15.40
2019-06-01T02:35:17.541Z,15.30
2019-06-01T02:37:45.766Z,15.20
2019-06-01T02:40:14.179Z,15.20
2019-06-01T02:42:42.398Z,15.00
2019-06-01T02:45:11.574Z,15.00
2019-06-01T02:47:39.711Z,14.90
2019-06-01T02:50:08.556Z,14.80
2019-06-01T02:52:36.496Z,14.90
2019-06-01T02:55:06.498Z,14.90
2019-06-01T02:57:35.062Z,14.80
2019-06-01T03:00:04.844Z,14.80
2019-06-01T03:02:32.875Z,14.90
2019-06-01T03:05:01.190Z,15.00
2019-06-01T03:07:30.851Z,15.10
2019-06-01T03:10:03.150Z,15.00
2019-06-01T03:12:36.458Z,14.90
2019-06-01T03:15:04.775Z,14.70
2019-06-01T03:17:34.442Z,14.90
2019-06-01T03:20:04.906Z,15.00
2019-06-01T03:22:34.070Z,14.80
2019-06-01T03:25:05.923Z,14.70
2019-06-01T03:27:36.498Z,14.80
2019-06-01T03:30:08.895Z,14.70
2019-06-01T03:32:37.599Z,14.60
2019-06-01T03:35:06.748Z,14.60
2019-06-01T03:37:34.910Z,14.60
2019-06-01T03:40:06.870Z,14.50
2019-06-01T03:42:33.473Z,14.70
2019-06-01T03:45:01.517Z,14.80
2019-06-01T03:47:29.402Z,14.60
2019-06-01T03:49:57.359Z,14.60
2019-06-01T03:52:25.336Z,14.60
2019-06-01T03:54:53.424Z,14.90
2019-06-01T03:57:21.284Z,14.80
2019-06-01T03:59:49.211Z,14.70
2019-06-01T04:02:17.052Z,14.80
2019-06-01T04:04:44.887Z,14.80
2019-06-01T04:07:12.845Z,14.70
2019-06-01T04:09:41.768Z,14.80
2019-06-01T04:12:09.800Z,14.80
2019-06-01T04:14:37.794Z,15.00
2019-06-01T04:17:06.142Z,15.10
2019-06-01T04:19:34.186Z,15.00
2019-06-01T04:22:02.187Z,15.00
2019-06-01T04:24:30.334Z,15.20
2019-06-01T04:26:58.430Z,15.10
2019-06-01T04:29:26.273Z,15.10
2019-06-01T04:31:54.141Z,15.20
2019-06-01T04:34:22.166Z,15.40
2019-06-01T04:36:50.159Z,15.40
2019-06-01T04:39:18.300Z,15.40
2019-06-01T04:41:46.221Z,15.40
2019-06-01T04:44:14.417Z,15.30
2019-06-01T04:46:42.954Z,15.40
2019-06-01T04:49:11.051Z,15.40
2019-06-01T04:51:38.941Z,15.50
2019-06-01T04:54:06.940Z,15.70
2019-06-01T04:56:35.291Z,15.60
2019-06-01T04:59:03.235Z,15.70
2019-06-01T05:01:31.127Z,15.80
2019-06-01T05:03:59.496Z,15.90
2019-06-01T05:06:27.720Z,15.80
2019-06-01T05:08:55.610Z,15.70
2019-06-01T05:11:23.509Z,15.60
2019-06-01T05:13:51.841Z,15.80
2019-06-01T05:16:20.064Z,15.90
2019-06-01T05:18:48.049Z,15.90
2019-06-01T05:21:16.859Z,16.10
2019-06-01T05:23:44.785Z,16.80
2019-06-01T05:26:13.101Z,18.50
2019-06-01T05:28:41.079Z,20.60
2019-06-01T05:31:13.221Z,21.90
2019-06-01T05:33:38.809Z,23.10
2019-06-01T05:36:07.919Z,24.00
2019-06-01T05:38:36.007Z,24.90
2019-06-01T05:41:04.539Z,25.60
2019-06-01T05:43:32.355Z,25.90
2019-06-01T05:46:00.219Z,25.50
2019-06-01T05:48:30.793Z,25.40
2019-06-01T05:50:58.908Z,25.80
2019-06-01T05:53:26.889Z,25.50
2019-06-01T05:55:54.873Z,24.40
2019-06-01T05:58:22.773Z,23.90
2019-06-01T06:00:52.071Z,24.00
2019-06-01T06:03:22.304Z,24.10
2019-06-01T06:05:50.426Z,23.90
2019-06-01T06:08:18.468Z,23.80
2019-06-01T06:10:46.694Z,24.40
2019-06-01T06:13:15.303Z,25.30
2019-06-01T06:15:43.559Z,26.10
2019-06-01T06:18:11.734Z,26.30
2019-06-01T06:20:40.029Z,26.10
2019-06-01T06:23:07.961Z,25.90
2019-06-01T06:25:39.247Z,25.50
2019-06-01T06:28:05.932Z,25.20
2019-06-01T06:30:34.349Z,25.00
2019-06-01T06:33:02.427Z,25.00
2019-06-01T06:35:30.848Z,25.00
2019-06-01T06:37:59.247Z,25.30
2019-06-01T06:40:27.358Z,25.00
2019-06-01T06:42:55.310Z,24.80
2019-06-01T06:45:23.428Z,25.10
2019-06-01T06:47:51.757Z,25.60
2019-06-01T06:50:19.699Z,25.70
2019-06-01T06:52:48.266Z,25.60
2019-06-01T06:55:16.253Z,25.40
2019-06-01T06:57:44.417Z,25.70
2019-06-01T07:00:14.079Z,25.60
2019-06-01T07:02:42.081Z,25.70
2019-06-01T07:05:10.503Z,26.30
2019-06-01T07:07:38.726Z,26.70
2019-06-01T07:10:06.645Z,25.80
2019-06-01T07:12:34.821Z,25.70
2019-06-01T07:15:03.801Z,25.50
2019-06-01T07:17:32.218Z,25.20
2019-06-01T07:20:00.074Z,25.50
2019-06-01T07:22:28.131Z,25.00
2019-06-01T07:24:56.239Z,24.80
2019-06-01T07:27:24.644Z,24.10
2019-06-01T07:29:52.902Z,24.10
2019-06-01T07:32:22.041Z,24.20
2019-06-01T07:34:50.168Z,24.70
2019-06-01T07:37:18.064Z,25.20
2019-06-01T07:39:47.995Z,25.20
2019-06-01T07:42:16.941Z,24.80
2019-06-01T07:44:45.235Z,24.00
2019-06-01T07:47:13.132Z,23.80
2019-06-01T07:49:41.107Z,24.00
2019-06-01T07:52:13.267Z,24.10
2019-06-01T07:54:39.120Z,24.30
2019-06-01T07:57:07.029Z,24.20
2019-06-01T07:59:35.033Z,23.80
2019-06-01T08:02:03.595Z,23.30
2019-06-01T08:04:47.511Z,23.00
2019-06-01T08:07:01.914Z,22.80
2019-06-01T08:09:29.945Z,22.90
2019-06-01T08:11:58.377Z,23.10
2019-06-01T08:14:26.532Z,23.10
2019-06-01T08:16:54.963Z,23.00
2019-06-01T08:19:23.866Z,23.30
2019-06-01T08:21:52.282Z,23.50
2019-06-01T08:24:20.510Z,23.30
2019-06-01T08:26:48.609Z,23.60
2019-06-01T08:29:16.711Z,23.50
2019-06-01T08:31:45.072Z,23.60
2019-06-01T08:34:13.354Z,24.00
2019-06-01T08:36:41.411Z,23.90
2019-06-01T08:39:09.874Z,24.00
2019-06-01T08:41:37.955Z,24.40
2019-06-01T08:44:06.134Z,24.60
2019-06-01T08:46:34.146Z,25.00
2019-06-01T08:49:02.214Z,24.80
2019-06-01T08:51:32.063Z,24.70
2019-06-01T08:54:00.155Z,24.50
2019-06-01T08:56:28.289Z,24.50
2019-06-01T08:58:56.929Z,24.60
2019-06-01T09:01:26.432Z,24.70
2019-06-01T09:03:54.580Z,24.90
2019-06-01T09:06:22.662Z,25.20
2019-06-01T09:08:51.085Z,25.70
2019-06-01T09:11:19.126Z,26.10
2019-06-01T09:13:47.144Z,26.40
2019-06-01T09:16:15.539Z,26.50
2019-06-01T09:18:43.708Z,26.60
2019-06-01T09:21:11.739Z,26.80
2019-06-01T09:23:39.999Z,26.80
2019-06-01T09:26:08.124Z,27.10
2019-06-01T09:28:36.283Z,27.00
2019-06-01T09:31:04.679Z,27.20
2019-06-01T09:33:32.596Z,27.30
2019-06-01T09:36:00.530Z,27.20
2019-06-01T09:38:29.604Z,27.30
2019-06-01T09:40:57.876Z,27.40
2019-06-01T09:43:26.516Z,27.40
2019-06-01T09:45:54.727Z,27.50
2019-06-01T09:48:22.654Z,27.70
2019-06-01T09:50:50.783Z,27.80
2019-06-01T09:53:19.149Z,28.00
2019-06-01T09:55:47.209Z,28.20
2019-06-01T09:58:15.136Z,27.90
2019-06-01T10:00:44.011Z,28.20
2019-06-01T10:03:12.168Z,28.30
2019-06-01T10:05:40.102Z,28.10
2019-06-01T10:08:08.169Z,28.30
2019-06-01T10:10:36.081Z,28.40
2019-06-01T10:13:07.661Z,28.30
2019-06-01T10:15:36.377Z,28.40
2019-06-01T10:18:04.799Z,28.50
2019-06-01T10:20:33.273Z,28.90
2019-06-01T10:23:01.289Z,28.90
2019-06-01T10:25:30.338Z,28.40
2019-06-01T10:27:59.219Z,28.50
2019-06-01T10:30:28.179Z,28.00
2019-06-01T10:32:56.397Z,27.90
2019-06-01T10:35:24.767Z,28.20
2019-06-01T10:37:53.380Z,27.80
2019-06-01T10:40:21.720Z,28.00
2019-06-01T10:42:49.853Z,27.80
2019-06-01T10:45:18.367Z,28.10
2019-06-01T10:47:46.397Z,28.20
2019-06-01T10:50:17.494Z,28.00
2019-06-01T10:52:45.673Z,27.80
2019-06-01T10:55:15.240Z,27.90
2019-06-01T10:57:43.553Z,28.10
2019-06-01T11:00:13.628Z,28.60
2019-06-01T11:02:43.118Z,28.70
2019-06-01T11:05:11.436Z,28.90
2019-06-01T11:07:40.908Z,28.90
2019-06-01T11:10:10.255Z,28.90
2019-06-01T11:12:39.136Z,29.10
2019-06-01T11:15:07.519Z,29.10
2019-06-01T11:17:35.560Z,29.00
2019-06-01T11:20:04.080Z,28.90
2019-06-01T11:22:33.319Z,29.00
2019-06-01T11:25:01.559Z,28.70
2019-06-01T11:27:29.726Z,28.80
2019-06-01T11:29:57.782Z,28.50
2019-06-01T11:32:25.775Z,28.80
2019-06-01T11:34:53.783Z,29.20
2019-06-01T11:37:21.923Z,29.30
2019-06-01T11:39:50.037Z,29.20
2019-06-01T11:42:20.050Z,29.00
2019-06-01T11:44:48.290Z,28.90
2019-06-01T11:47:16.484Z,29.20
2019-06-01T11:49:45.116Z,29.30
2019-06-01T11:52:13.862Z,28.70
2019-06-01T11:54:43.282Z,28.30
2019-06-01T11:57:11.411Z,28.00
2019-06-01T11:59:39.549Z,28.40
2019-06-01T12:02:08.132Z,28.90
2019-06-01T12:04:36.087Z,29.10
2019-06-01T12:07:17.009Z,29.30
2019-06-01T12:09:34.258Z,29.40
2019-06-01T12:12:02.227Z,29.60
2019-06-01T12:14:30.393Z,29.90
2019-06-01T12:16:58.876Z,30.00
2019-06-01T12:19:26.892Z,29.70
2019-06-01T12:21:54.846Z,29.60
2019-06-01T12:24:25.677Z,29.50
2019-06-01T12:26:52.730Z,29.70
2019-06-01T12:29:20.746Z,29.90
2019-06-01T12:31:49.002Z,29.40
2019-06-01T12:34:16.928Z,29.30
2019-06-01T12:36:46.297Z,28.80
2019-06-01T12:39:14.555Z,28.80
2019-06-01T12:41:43.523Z,29.10
2019-06-01T12:44:12.804Z,29.10
2019-06-01T12:46:41.768Z,29.40
2019-06-01T12:49:10.342Z,29.70
2019-06-01T12:51:38.247Z,29.70
2019-06-01T12:54:06.231Z,29.70
2019-06-01T12:56:34.058Z,29.80
2019-06-01T12:59:02.148Z,29.80
2019-06-01T13:01:30.573Z,30.00
2019-06-01T13:03:58.559Z,29.90
2019-06-01T13:06:26.668Z,30.00
2019-06-01T13:08:54.563Z,29.90
2019-06-01T13:11:23.146Z,30.00
2019-06-01T13:13:51.438Z,29.90
2019-06-01T13:16:20.024Z,30.10
2019-06-01T13:18:49.450Z,29.80
2019-06-01T13:21:18.052Z,29.90
2019-06-01T13:23:46.004Z,29.80
2019-06-01T13:26:13.917Z,29.90
2019-06-01T13:28:42.012Z,29.80
2019-06-01T13:31:09.979Z,29.80
2019-06-01T13:33:38.231Z,30.00
2019-06-01T13:36:06.174Z,30.20
2019-06-01T13:38:34.220Z,30.00
2019-06-01T13:41:02.708Z,30.00
2019-06-01T13:43:30.789Z,30.10
2019-06-01T13:45:58.918Z,30.10
2019-06-01T13:48:26.896Z,29.90
2019-06-01T13:50:55.032Z,30.10
2019-06-01T13:53:23.200Z,30.10
2019-06-01T13:55:51.175Z,30.20
2019-06-01T13:58:19.239Z,30.40
2019-06-01T14:00:48.369Z,30.60
2019-06-01T14:03:16.372Z,30.40
2019-06-01T14:05:44.728Z,30.20
2019-06-01T14:08:28.159Z,30.40
2019-06-01T14:10:45.052Z,30.50
2019-06-01T14:13:13.198Z,30.60
2019-06-01T14:15:41.123Z,30.70
2019-06-01T14:18:09.361Z,30.40
2019-06-01T14:20:37.418Z,30.40
2019-06-01T14:23:05.872Z,30.30
2019-06-01T14:25:34.062Z,29.90
2019-06-01T14:28:02.361Z,29.50
2019-06-01T14:30:30.297Z,29.30
2019-06-01T14:32:58.220Z,29.50
2019-06-01T14:35:26.375Z,29.70
2019-06-01T14:37:55.135Z,29.40
2019-06-01T14:40:23.384Z,29.10
2019-06-01T14:42:52.013Z,29.00
2019-06-01T14:45:20.567Z,29.30
2019-06-01T14:47:49.380Z,29.70
2019-06-01T14:50:17.735Z,29.90
2019-06-01T14:52:45.869Z,30.00
2019-06-01T14:55:14.822Z,30.20
2019-06-01T14:57:42.841Z,30.20
2019-06-01T15:00:11.383Z,30.20
2019-06-01T15:02:39.479Z,29.90
2019-06-01T15:05:08.019Z,29.80
2019-06-01T15:07:36.205Z,29.80
2019-06-01T15:10:06.116Z,29.80
2019-06-01T15:12:34.136Z,29.50
2019-06-01T15:15:03.301Z,29.60
2019-06-01T15:17:31.854Z,29.70
2019-06-01T15:19:59.954Z,29.80
2019-06-01T15:22:27.976Z,29.80
2019-06-01T15:24:56.439Z,30.00
2019-06-01T15:27:24.546Z,29.90
2019-06-01T15:29:52.752Z,29.30
2019-06-01T15:32:20.874Z,29.30
2019-06-01T15:34:50.238Z,29.30
2019-06-01T15:37:18.498Z,29.30
2019-06-01T15:39:46.551Z,29.10
2019-06-01T15:42:14.851Z,29.00
2019-06-01T15:44:43.127Z,29.20
2019-06-01T15:47:11.138Z,29.50
2019-06-01T15:49:39.245Z,29.60
2019-06-01T15:52:07.210Z,29.60
2019-06-01T15:54:35.517Z,29.80
2019-06-01T15:57:03.741Z,29.70
2019-06-01T15:59:31.628Z,29.90
2019-06-01T16:01:59.608Z,30.00
2019-06-01T16:04:27.599Z,30.30
2019-06-01T16:06:55.556Z,30.40
2019-06-01T16:09:41.317Z,30.50
2019-06-01T16:11:53.767Z,30.50
2019-06-01T16:14:21.760Z,30.60
2019-06-01T16:16:49.820Z,30.30
2019-06-01T16:19:18.212Z,30.10
2019-06-01T16:21:46.075Z,29.70
2019-06-01T16:24:14.154Z,29.30
2019-06-01T16:26:42.167Z,28.80
2019-06-01T16:29:10.294Z,28.80
2019-06-01T16:31:38.244Z,29.10
2019-06-01T16:34:06.295Z,29.30
2019-06-01T16:36:34.389Z,29.60
2019-06-01T16:39:06.767Z,29.40
2019-06-01T16:41:34.522Z,29.20
2019-06-01T16:44:03.753Z,29.40
2019-06-01T16:46:32.214Z,29.50
2019-06-01T16:49:01.361Z,29.40
2019-06-01T16:51:53.683Z,29.20
2019-06-01T16:54:21.750Z,29.00
2019-06-01T16:56:49.998Z,29.20
2019-06-01T16:59:18.056Z,29.30
2019-06-01T17:01:46.033Z,29.40
2019-06-01T17:04:14.150Z,29.80
2019-06-01T17:06:42.388Z,30.00
2019-06-01T17:09:10.721Z,30.00
2019-06-01T17:11:39.358Z,29.80
2019-06-01T17:14:07.295Z,29.40
2019-06-01T17:16:35.461Z,29.20
2019-06-01T17:19:05.091Z,29.10
2019-06-01T17:21:33.544Z,29.20
2019-06-01T17:24:01.822Z,29.30
2019-06-01T17:26:30.041Z,29.00
2019-06-01T17:28:58.396Z,28.90
2019-06-01T17:31:26.379Z,28.90
2019-06-01T17:33:54.436Z,29.00
2019-06-01T17:36:24.101Z,29.00
2019-06-01T17:38:52.059Z,29.00
2019-06-01T17:41:20.338Z,28.90
2019-06-01T17:43:48.336Z,28.70
2019-06-01T17:46:16.806Z,28.50
2019-06-01T17:48:44.955Z,28.30
2019-06-01T17:51:13.285Z,28.00
2019-06-01T17:53:41.394Z,27.80
2019-06-01T17:56:10.167Z,27.60
2019-06-01T17:58:38.685Z,27.40
2019-06-01T18:01:08.135Z,27.30
2019-06-01T18:03:36.648Z,27.10
2019-06-01T18:06:05.830Z,27.00
2019-06-01T18:08:34.403Z,26.90
2019-06-01T18:11:02.454Z,26.80
2019-06-01T18:13:31.304Z,26.60
2019-06-01T18:15:59.845Z,26.50
2019-06-01T18:18:28.222Z,26.40
2019-06-01T18:20:56.784Z,26.20
2019-06-01T18:23:25.093Z,26.10
2019-06-01T18:25:53.207Z,26.00
2019-06-01T18:28:21.552Z,25.90
2019-06-01T18:30:51.378Z,25.80
2019-06-01T18:33:19.843Z,25.70
2019-06-01T18:35:47.745Z,25.60
2019-06-01T18:38:15.788Z,25.60
2019-06-01T18:40:43.881Z,25.60
2019-06-01T18:43:17.263Z,25.40
2019-06-01T18:45:47.104Z,25.30
2019-06-01T18:48:16.239Z,25.30
2019-06-01T18:50:45.388Z,25.20
2019-06-01T18:53:14.202Z,25.10
2019-06-01T18:55:42.351Z,24.90
2019-06-01T18:58:10.383Z,24.90
2019-06-01T19:00:40.090Z,24.80
2019-06-01T19:03:09.087Z,24.80
2019-06-01T19:05:37.258Z,24.70
2019-06-01T19:08:07.040Z,24.60
2019-06-01T19:10:35.410Z,24.60
2019-06-01T19:13:03.737Z,24.50
2019-06-01T19:15:31.791Z,24.40
2019-06-01T19:17:59.856Z,24.30
2019-06-01T19:20:28.428Z,24.20
2019-06-01T19:22:56.544Z,24.20
2019-06-01T19:25:25.271Z,24.20
2019-06-01T19:27:53.434Z,24.20
2019-06-01T19:30:38.304Z,24.10
2019-06-01T19:33:11.096Z,24.10
2019-06-01T19:35:38.371Z,24.00
2019-06-01T19:38:07.019Z,24.00
2019-06-01T19:40:37.994Z,24.00
2019-06-01T19:43:07.368Z,24.00
2019-06-01T19:45:35.963Z,23.90
2019-06-01T19:48:08.039Z,23.90
2019-06-01T19:50:36.811Z,23.80
2019-06-01T19:53:05.308Z,23.70
2019-06-01T19:55:33.550Z,23.70
2019-06-01T19:58:01.761Z,23.60
2019-06-01T20:00:30.131Z,23.50
2019-06-01T20:02:58.268Z,23.40
2019-06-01T20:05:27.394Z,23.30
2019-06-01T20:07:55.351Z,23.40
2019-06-01T20:10:23.749Z,23.40
2019-06-01T20:12:51.908Z,23.30
2019-06-01T20:15:19.920Z,23.30
2019-06-01T20:17:48.101Z,23.20
2019-06-01T20:20:19.662Z,23.20
2019-06-01T20:22:47.864Z,23.10
2019-06-01T20:25:17.393Z,23.10
2019-06-01T20:27:45.807Z,23.10
2019-06-01T20:30:15.761Z,23.10
2019-06-01T20:32:43.935Z,23.10
2019-06-01T20:35:13.911Z,23.00
2019-06-01T20:37:42.821Z,23.00
2019-06-01T20:40:12.143Z,23.10
2019-06-01T20:42:40.294Z,22.90
2019-06-01T20:45:08.697Z,22.90
2019-06-01T20:47:36.833Z,22.90
2019-06-01T20:50:07.090Z,22.90
2019-06-01T20:52:35.071Z,22.90
2019-06-01T20:55:04.864Z,22.90
2019-06-01T20:57:33.238Z,23.00
2019-06-01T21:00:01.506Z,23.10
2019-06-01T21:02:29.605Z,23.00
2019-06-01T21:04:57.697Z,23.00
2019-06-01T21:07:25.737Z,22.90
2019-06-01T21:09:53.624Z,22.90
2019-06-01T21:12:42.636Z,22.80
2019-06-01T21:14:51.795Z,22.70
2019-06-01T21:17:20.615Z,22.50
2019-06-01T21:19:48.878Z,22.50
2019-06-01T21:22:16.873Z,22.30
2019-06-01T21:24:45.168Z,22.30
2019-06-01T21:27:14.411Z,22.40
2019-06-01T21:29:42.420Z,22.40
2019-06-01T21:32:10.370Z,22.30
2019-06-01T21:34:38.386Z,22.20
2019-06-01T21:37:06.945Z,22.20
2019-06-01T21:39:35.022Z,22.00
2019-06-01T21:42:03.291Z,21.90
2019-06-01T21:44:31.668Z,21.80
2019-06-01T21:46:59.683Z,21.80
2019-06-01T21:49:27.737Z,21.80
2019-06-01T21:51:55.781Z,21.70
2019-06-01T21:54:24.635Z,21.70
2019-06-01T21:56:53.580Z,21.70
2019-06-01T21:59:22.670Z,21.60
2019-06-01T22:01:51.198Z,21.60
2019-06-01T22:04:20.722Z,21.50
2019-06-01T22:06:49.265Z,21.40
2019-06-01T22:09:17.335Z,21.70
2019-06-01T22:11:45.424Z,21.80
2019-06-01T22:14:13.594Z,22.00
2019-06-01T22:16:41.560Z,22.40
2019-06-01T22:19:09.626Z,22.80
2019-06-01T22:21:37.792Z,23.00
2019-06-01T22:24:06.255Z,23.20
2019-06-01T22:26:34.312Z,23.20
2019-06-01T22:29:02.557Z,23.10
2019-06-01T22:31:30.496Z,22.80
2019-06-01T22:33:58.470Z,22.40
2019-06-01T22:36:27.217Z,22.10
2019-06-01T22:38:55.202Z,22.20
2019-06-01T22:41:23.880Z,22.50
2019-06-01T22:43:51.871Z,22.90
2019-06-01T22:46:20.386Z,23.00
2019-06-01T22:48:48.400Z,23.10
2019-06-01T22:51:16.351Z,22.70
2019-06-01T22:53:44.344Z,22.50
2019-06-01T22:56:12.454Z,22.30
2019-06-01T22:58:40.650Z,22.60
2019-06-01T23:01:08.752Z,22.80
2019-06-01T23:03:36.769Z,23.00
2019-06-01T23:06:04.777Z,23.40
2019-06-01T23:08:32.684Z,23.60
2019-06-01T23:11:00.573Z,23.60
2019-06-01T23:13:28.407Z,23.60
2019-06-01T23:15:56.408Z,23.60
2019-06-01T23:18:25.562Z,23.60
2019-06-01T23:20:53.749Z,23.60
2019-06-01T23:23:22.408Z,23.70
2019-06-01T23:25:50.494Z,23.70
2019-06-01T23:28:18.622Z,23.60
2019-06-01T23:30:46.704Z,23.80
2019-06-01T23:33:15.158Z,23.60
2019-06-01T23:35:43.479Z,23.60
2019-06-01T23:38:12.801Z,23.60
2019-06-01T23:40:40.754Z,23.60
2019-06-01T23:43:08.849Z,23.60
2019-06-01T23:45:36.726Z,23.50
2019-06-01T23:48:04.785Z,23.50
2019-06-01T23:50:34.053Z,23.40
2019-06-01T23:53:13.200Z,23.40
2019-06-01T23:55:32.360Z,23.40
2019-06-01T23:58:00.464Z,23.50
